METAR és
SPECI
METAR LHBP 231830Z VRB03KT CAVOK 16/13 Q1016 NOSIG=
METAR LHBP 231800Z VRB03KT CAVOK 17/13 Q1016 NOSIG=
METAR LHBP 231730Z 02004KT 320V050 CAVOK 18/13 Q1015 NOSIG=
METAR LHBP 231700Z 04004KT 360V070 CAVOK 19/12 Q1015 NOSIG=
METAR LHBP 231630Z VRB03KT CAVOK 19/13 Q1015 NOSIG=
METAR LHBP 231600Z 02005KT 350V050 9999 FEW047 BKN090 20/13 Q1016 NOSIG=
TAF
TAF LHBP 231700Z 2318/2418 VRB03KT CAVOK TEMPO 2401/2406 5000 BR NSC BECMG 2406/2409 06011KT 9999 SCT036 BKN075 TEMPO 2411/2415 -SHRA -RA BKN025 TEMPO 2415/2418 -SHRA SCT030CB BKN033=
GAMET
Nincs érvényes távirat! 
FAHU41 LHBM 231100
LHCC GAMET VALID 231200/231800 LHBP-
BUDAPEST FIR BLW FL100
SECN 1
SIGWX: ISOL TS
SIG CLD: OCNL TCU CB 2500-3500/XXX FT AGL N OF N4710
ISOL TCU CB 2500-3500/XXX FT AGL S OF N4710
SIGMETS APPLICABLE: NIL=
AIRMET
Nincs érvényes távirat! 
WAHU41 LHBM 220900
LHCC AIRMET 01 VALID 220900/221200 LHBP-
LHCC BUDAPEST FIR BKN 0300-1500/XXX FT AGL OBS BTN OF
LINE N4611 E01941 - N4744 E01819 AND
N4714 E02151 - N4804 E01907 MOV N-NE WKN=
SIGMET
Nincs érvényes távirat! 
WSHU31 LHBM 220725
LHCC SIGMET 02 VALID 220725/220930 LHBP-
LHCC BUDAPEST FIR EMBD TS FCST BTN LINE N4609 E02042 -
N4804 E01907 AND LINE N4544 E01824 - N4740 E01700
CB TOP FL320 MOV N NC=
SIGMET
Vulkáni hamufelhő
Nincs érvényes távirat! 
WVHU31 LHBM 271515 CCA
LHCC SIGMET 03 VALID 271515/271800 LHBP-
LHCC BUDAPEST FIR EXERCISE VOLCEX12/01
CNL VA SIGMET 02 271200/271800
EXERCISE EXERCISE EXERCISE VOLCEX12/01=